sensor_id;sensor_type;location;lat;lon;timestamp;P1;durP1;ratioP1;P2;durP2;ratioP2
77854;SDS011;67046;50.088;14.336;2023-03-03T00:00:26;37.20;;;20.80;;
77854;SDS011;67046;50.088;14.336;2023-03-03T00:01:18;39.60;;;19.70;;
77854;SDS011;67046;50.088;14.336;2023-03-03T00:01:50;37.60;;;20.50;;
77854;SDS011;67046;50.088;14.336;2023-03-03T00:02:22;37.20;;;21.30;;
77854;SDS011;67046;50.088;14.336;2023-03-03T00:02:56;37.40;;;21.30;;
77854;SDS011;67046;50.088;14.336;2023-03-03T00:03:34;39.50;;;21.50;;
77854;SDS011;67046;50.088;14.336;2023-03-03T00:04:06;42.50;;;21.90;;
77854;SDS011;67046;50.088;14.336;2023-03-03T00:04:38;39.30;;;21.30;;
77854;SDS011;67046;50.088;14.336;2023-03-03T00:05:10;36.40;;;22.00;;
77854;SDS011;67046;50.088;14.336;2023-03-03T00:05:45;41.20;;;22.30;;
77854;SDS011;67046;50.088;14.336;2023-03-03T00:06:18;39.30;;;21.50;;
77854;SDS011;67046;50.088;14.336;2023-03-03T00:07:22;40.30;;;20.00;;
77854;SDS011;67046;50.088;14.336;2023-03-03T00:07:54;36.20;;;20.20;;
77854;SDS011;67046;50.088;14.336;2023-03-03T00:08:26;35.50;;;20.50;;
77854;SDS011;67046;50.088;14.336;2023-03-03T00:08:58;36.00;;;20.70;;
77854;SDS011;67046;50.088;14.336;2023-03-03T00:09:30;39.90;;;21.70;;
77854;SDS011;67046;50.088;14.336;2023-03-03T00:10:02;40.30;;;22.10;;
77854;SDS011;67046;50.088;14.336;2023-03-03T00:10:34;35.90;;;20.40;;
77854;SDS011;67046;50.088;14.336;2023-03-03T00:11:06;37.40;;;22.10;;
77854;SDS011;67046;50.088;14.336;2023-03-03T00:12:17;38.30;;;19.60;;
77854;SDS011;67046;50.088;14.336;2023-03-03T00:12:54;34.90;;;19.80;;
77854;SDS011;67046;50.088;14.336;2023-03-03T00:13:27;36.50;;;20.90;;
77854;SDS011;67046;50.088;14.336;2023-03-03T00:14:01;34.60;;;19.90;;
77854;SDS011;67046;50.088;14.336;2023-03-03T00:14:33;36.30;;;20.10;;
77854;SDS011;67046;50.088;14.336;2023-03-03T00:15:18;36.30;;;20.50;;
77854;SDS011;67046;50.088;14.336;2023-03-03T00:15:53;33.20;;;18.80;;
77854;SDS011;67046;50.088;14.336;2023-03-03T00:16:37;34.60;;;19.00;;
77854;SDS011;67046;50.088;14.336;2023-03-03T00:17:14;33.80;;;19.50;;
77854;SDS011;67046;50.088;14.336;2023-03-03T00:17:52;34.40;;;19.30;;
77854;SDS011;67046;50.088;14.336;2023-03-03T00:18:34;38.10;;;19.80;;
77854;SDS011;67046;50.088;14.336;2023-03-03T00:19:14;36.90;;;19.10;;
77854;SDS011;67046;50.088;14.336;2023-03-03T00:19:49;38.80;;;20.20;;
77854;SDS011;67046;50.088;14.336;2023-03-03T00:20:31;36.30;;;20.00;;
77854;SDS011;67046;50.088;14.336;2023-03-03T00:21:14;31.70;;;18.10;;
77854;SDS011;67046;50.088;14.336;2023-03-03T00:22:30;32.50;;;17.40;;
77854;SDS011;67046;50.088;14.336;2023-03-03T00:23:15;35.70;;;17.80;;
77854;SDS011;67046;50.088;14.336;2023-03-03T00:23:51;35.20;;;19.50;;
77854;SDS011;67046;50.088;14.336;2023-03-03T00:24:24;34.30;;;18.70;;
77854;SDS011;67046;50.088;14.336;2023-03-03T00:26:51;34.60;;;17.90;;
77854;SDS011;67046;50.088;14.336;2023-03-03T00:27:15;32.10;;;18.20;;
77854;SDS011;67046;50.088;14.336;2023-03-03T00:27:53;34.50;;;17.80;;
77854;SDS011;67046;50.088;14.336;2023-03-03T00:28:29;35.20;;;18.20;;
77854;SDS011;67046;50.088;14.336;2023-03-03T00:29:23;35.00;;;18.30;;
77854;SDS011;67046;50.088;14.336;2023-03-03T00:29:57;33.30;;;18.00;;
77854;SDS011;67046;50.088;14.336;2023-03-03T00:30:31;38.90;;;19.00;;
77854;SDS011;67046;50.088;14.336;2023-03-03T00:31:12;36.40;;;19.30;;
77854;SDS011;67046;50.088;14.336;2023-03-03T00:31:47;34.90;;;18.30;;
77854;SDS011;67046;50.088;14.336;2023-03-03T00:33:24;35.50;;;19.20;;
77854;SDS011;67046;50.088;14.336;2023-03-03T00:35:00;36.50;;;18.60;;
77854;SDS011;67046;50.088;14.336;2023-03-03T00:35:48;35.90;;;19.70;;
77854;SDS011;67046;50.088;14.336;2023-03-03T00:36:21;34.50;;;18.70;;
77854;SDS011;67046;50.088;14.336;2023-03-03T00:37:02;34.80;;;18.60;;
77854;SDS011;67046;50.088;14.336;2023-03-03T00:37:34;36.80;;;18.90;;
77854;SDS011;67046;50.088;14.336;2023-03-03T00:38:11;35.00;;;20.10;;
77854;SDS011;67046;50.088;14.336;2023-03-03T00:38:47;34.30;;;20.40;;
77854;SDS011;67046;50.088;14.336;2023-03-03T00:40:55;36.80;;;20.20;;
77854;SDS011;67046;50.088;14.336;2023-03-03T00:41:27;37.50;;;20.80;;
77854;SDS011;67046;50.088;14.336;2023-03-03T00:41:59;38.90;;;21.90;;
77854;SDS011;67046;50.088;14.336;2023-03-03T00:42:34;37.40;;;21.60;;
77854;SDS011;67046;50.088;14.336;2023-03-03T00:43:53;37.00;;;20.80;;
77854;SDS011;67046;50.088;14.336;2023-03-03T00:45:04;42.50;;;23.60;;
77854;SDS011;67046;50.088;14.336;2023-03-03T00:45:54;37.20;;;22.00;;
77854;SDS011;67046;50.088;14.336;2023-03-03T00:46:28;45.60;;;24.10;;
77854;SDS011;67046;50.088;14.336;2023-03-03T00:47:01;38.00;;;21.30;;
77854;SDS011;67046;50.088;14.336;2023-03-03T00:47:48;41.90;;;21.70;;
77854;SDS011;67046;50.088;14.336;2023-03-03T00:49:07;39.20;;;22.40;;
77854;SDS011;67046;50.088;14.336;2023-03-03T00:50:37;39.50;;;22.10;;
77854;SDS011;67046;50.088;14.336;2023-03-03T00:51:58;40.00;;;22.90;;
77854;SDS011;67046;50.088;14.336;2023-03-03T00:52:30;38.30;;;20.80;;
77854;SDS011;67046;50.088;14.336;2023-03-03T00:53:09;40.90;;;22.30;;
77854;SDS011;67046;50.088;14.336;2023-03-03T00:53:48;40.30;;;22.60;;
77854;SDS011;67046;50.088;14.336;2023-03-03T00:54:21;39.00;;;20.60;;
77854;SDS011;67046;50.088;14.336;2023-03-03T00:54:53;36.30;;;20.20;;
77854;SDS011;67046;50.088;14.336;2023-03-03T00:55:57;41.70;;;20.50;;
77854;SDS011;67046;50.088;14.336;2023-03-03T00:56:29;35.30;;;19.80;;
77854;SDS011;67046;50.088;14.336;2023-03-03T00:57:02;36.60;;;20.90;;
77854;SDS011;67046;50.088;14.336;2023-03-03T00:57:34;38.50;;;22.10;;
77854;SDS011;67046;50.088;14.336;2023-03-03T00:58:06;39.50;;;21.90;;
77854;SDS011;67046;50.088;14.336;2023-03-03T00:58:38;37.60;;;22.30;;
77854;SDS011;67046;50.088;14.336;2023-03-03T00:59:10;40.00;;;20.90;;
77854;SDS011;67046;50.088;14.336;2023-03-03T00:59:42;37.90;;;21.80;;
77854;SDS011;67046;50.088;14.336;2023-03-03T01:00:14;36.20;;;21.40;;
77854;SDS011;67046;50.088;14.336;2023-03-03T01:00:50;34.10;;;19.90;;
77854;SDS011;67046;50.088;14.336;2023-03-03T01:01:24;34.50;;;17.90;;
77854;SDS011;67046;50.088;14.336;2023-03-03T01:01:56;36.00;;;19.90;;
77854;SDS011;67046;50.088;14.336;2023-03-03T01:02:28;38.60;;;20.40;;
77854;SDS011;67046;50.088;14.336;2023-03-03T01:03:01;39.50;;;19.40;;
77854;SDS011;67046;50.088;14.336;2023-03-03T01:03:36;33.40;;;19.10;;
77854;SDS011;67046;50.088;14.336;2023-03-03T01:04:08;31.10;;;19.00;;
77854;SDS011;67046;50.088;14.336;2023-03-03T01:04:40;41.20;;;21.90;;
77854;SDS011;67046;50.088;14.336;2023-03-03T01:05:17;34.90;;;18.60;;
77854;SDS011;67046;50.088;14.336;2023-03-03T01:05:50;33.00;;;17.60;;
77854;SDS011;67046;50.088;14.336;2023-03-03T01:06:23;35.90;;;19.30;;
77854;SDS011;67046;50.088;14.336;2023-03-03T01:06:55;34.40;;;20.10;;
77854;SDS011;67046;50.088;14.336;2023-03-03T01:07:27;34.70;;;19.80;;
77854;SDS011;67046;50.088;14.336;2023-03-03T01:07:59;33.10;;;18.10;;
77854;SDS011;67046;50.088;14.336;2023-03-03T01:08:32;37.80;;;20.80;;
77854;SDS011;67046;50.088;14.336;2023-03-03T01:09:36;32.60;;;17.40;;
77854;SDS011;67046;50.088;14.336;2023-03-03T01:10:08;33.70;;;18.30;;
77854;SDS011;67046;50.088;14.336;2023-03-03T01:10:42;34.80;;;19.70;;
77854;SDS011;67046;50.088;14.336;2023-03-03T01:11:22;33.80;;;18.60;;
77854;SDS011;67046;50.088;14.336;2023-03-03T01:11:56;35.90;;;19.00;;
77854;SDS011;67046;50.088;14.336;2023-03-03T01:12:28;34.90;;;19.00;;
77854;SDS011;67046;50.088;14.336;2023-03-03T01:13:00;33.70;;;19.50;;
77854;SDS011;67046;50.088;14.336;2023-03-03T01:14:05;35.90;;;19.20;;
77854;SDS011;67046;50.088;14.336;2023-03-03T01:14:38;36.90;;;20.70;;
77854;SDS011;67046;50.088;14.336;2023-03-03T01:15:11;37.10;;;20.00;;
77854;SDS011;67046;50.088;14.336;2023-03-03T01:15:45;36.70;;;19.20;;
77854;SDS011;67046;50.088;14.336;2023-03-03T01:16:17;38.90;;;21.20;;
77854;SDS011;67046;50.088;14.336;2023-03-03T01:16:50;36.80;;;20.30;;
77854;SDS011;67046;50.088;14.336;2023-03-03T01:17:22;36.80;;;21.00;;
77854;SDS011;67046;50.088;14.336;2023-03-03T01:17:54;42.50;;;22.90;;
77854;SDS011;67046;50.088;14.336;2023-03-03T01:18:26;36.60;;;20.80;;
77854;SDS011;67046;50.088;14.336;2023-03-03T01:18:58;40.50;;;20.80;;
77854;SDS011;67046;50.088;14.336;2023-03-03T01:19:30;39.60;;;21.40;;
77854;SDS011;67046;50.088;14.336;2023-03-03T01:20:03;38.20;;;20.70;;
77854;SDS011;67046;50.088;14.336;2023-03-03T01:20:35;39.00;;;19.80;;
77854;SDS011;67046;50.088;14.336;2023-03-03T01:21:08;34.40;;;18.90;;
77854;SDS011;67046;50.088;14.336;2023-03-03T01:21:41;36.00;;;19.30;;
77854;SDS011;67046;50.088;14.336;2023-03-03T01:22:13;35.00;;;20.00;;
77854;SDS011;67046;50.088;14.336;2023-03-03T01:22:45;33.70;;;19.10;;
77854;SDS011;67046;50.088;14.336;2023-03-03T01:23:18;33.90;;;19.40;;
77854;SDS011;67046;50.088;14.336;2023-03-03T01:23:49;30.40;;;17.70;;
77854;SDS011;67046;50.088;14.336;2023-03-03T01:24:21;33.50;;;19.00;;
77854;SDS011;67046;50.088;14.336;2023-03-03T01:24:54;34.70;;;19.50;;
77854;SDS011;67046;50.088;14.336;2023-03-03T01:25:26;34.00;;;19.00;;
77854;SDS011;67046;50.088;14.336;2023-03-03T01:26:30;32.30;;;18.10;;
77854;SDS011;67046;50.088;14.336;2023-03-03T01:27:02;31.20;;;17.50;;
77854;SDS011;67046;50.088;14.336;2023-03-03T01:27:34;30.90;;;18.30;;
77854;SDS011;67046;50.088;14.336;2023-03-03T01:28:07;34.30;;;17.40;;
77854;SDS011;67046;50.088;14.336;2023-03-03T01:28:39;33.60;;;18.80;;
77854;SDS011;67046;50.088;14.336;2023-03-03T01:29:11;34.90;;;19.10;;
77854;SDS011;67046;50.088;14.336;2023-03-03T01:29:44;34.60;;;17.90;;
77854;SDS011;67046;50.088;14.336;2023-03-03T01:30:15;33.90;;;18.20;;
77854;SDS011;67046;50.088;14.336;2023-03-03T01:30:47;36.90;;;20.00;;
77854;SDS011;67046;50.088;14.336;2023-03-03T01:31:19;32.50;;;18.80;;
77854;SDS011;67046;50.088;14.336;2023-03-03T01:31:51;33.30;;;19.50;;
77854;SDS011;67046;50.088;14.336;2023-03-03T01:32:24;30.40;;;17.90;;
77854;SDS011;67046;50.088;14.336;2023-03-03T01:32:56;34.90;;;18.70;;
77854;SDS011;67046;50.088;14.336;2023-03-03T01:33:28;34.50;;;18.00;;
77854;SDS011;67046;50.088;14.336;2023-03-03T01:34:02;31.60;;;17.40;;
77854;SDS011;67046;50.088;14.336;2023-03-03T01:34:34;31.80;;;17.90;;
77854;SDS011;67046;50.088;14.336;2023-03-03T01:35:06;34.30;;;18.60;;
77854;SDS011;67046;50.088;14.336;2023-03-03T01:35:42;33.00;;;18.00;;
77854;SDS011;67046;50.088;14.336;2023-03-03T01:36:24;31.20;;;16.70;;
77854;SDS011;67046;50.088;14.336;2023-03-03T01:36:57;28.10;;;16.10;;
77854;SDS011;67046;50.088;14.336;2023-03-03T01:37:32;30.10;;;17.10;;
77854;SDS011;67046;50.088;14.336;2023-03-03T01:38:05;30.60;;;17.70;;
77854;SDS011;67046;50.088;14.336;2023-03-03T01:38:37;29.80;;;18.00;;
77854;SDS011;67046;50.088;14.336;2023-03-03T01:39:10;34.20;;;18.10;;
77854;SDS011;67046;50.088;14.336;2023-03-03T01:39:46;31.90;;;17.20;;
77854;SDS011;67046;50.088;14.336;2023-03-03T01:40:24;32.00;;;18.00;;
77854;SDS011;67046;50.088;14.336;2023-03-03T01:40:58;34.30;;;17.30;;
77854;SDS011;67046;50.088;14.336;2023-03-03T01:42:04;26.60;;;15.40;;
77854;SDS011;67046;50.088;14.336;2023-03-03T01:43:09;29.00;;;15.40;;
77854;SDS011;67046;50.088;14.336;2023-03-03T01:43:47;32.00;;;16.60;;
77854;SDS011;67046;50.088;14.336;2023-03-03T01:44:20;30.40;;;17.50;;
77854;SDS011;67046;50.088;14.336;2023-03-03T01:45:14;29.70;;;15.70;;
77854;SDS011;67046;50.088;14.336;2023-03-03T01:46:59;31.50;;;17.00;;
77854;SDS011;67046;50.088;14.336;2023-03-03T01:47:37;30.70;;;16.70;;
77854;SDS011;67046;50.088;14.336;2023-03-03T01:48:13;31.70;;;17.00;;
77854;SDS011;67046;50.088;14.336;2023-03-03T01:48:50;29.90;;;16.80;;
77854;SDS011;67046;50.088;14.336;2023-03-03T01:49:32;31.70;;;17.10;;
77854;SDS011;67046;50.088;14.336;2023-03-03T01:50:14;27.10;;;15.90;;
77854;SDS011;67046;50.088;14.336;2023-03-03T01:51:01;29.60;;;16.60;;
77854;SDS011;67046;50.088;14.336;2023-03-03T01:51:53;29.30;;;15.10;;
77854;SDS011;67046;50.088;14.336;2023-03-03T01:53:19;35.10;;;17.80;;
77854;SDS011;67046;50.088;14.336;2023-03-03T01:53:58;31.00;;;17.30;;
77854;SDS011;67046;50.088;14.336;2023-03-03T01:54:35;32.90;;;16.60;;
77854;SDS011;67046;50.088;14.336;2023-03-03T01:55:22;29.30;;;16.60;;
77854;SDS011;67046;50.088;14.336;2023-03-03T01:55:59;31.50;;;17.20;;
77854;SDS011;67046;50.088;14.336;2023-03-03T01:56:33;32.80;;;17.30;;
77854;SDS011;67046;50.088;14.336;2023-03-03T01:57:05;31.70;;;17.70;;
77854;SDS011;67046;50.088;14.336;2023-03-03T01:57:45;34.70;;;17.90;;
77854;SDS011;67046;50.088;14.336;2023-03-03T01:58:30;30.50;;;17.10;;
77854;SDS011;67046;50.088;14.336;2023-03-03T01:59:13;32.20;;;17.10;;
77854;SDS011;67046;50.088;14.336;2023-03-03T01:59:57;30.40;;;16.40;;
77854;SDS011;67046;50.088;14.336;2023-03-03T02:00:32;33.50;;;17.50;;
77854;SDS011;67046;50.088;14.336;2023-03-03T02:01:08;33.20;;;17.80;;
77854;SDS011;67046;50.088;14.336;2023-03-03T02:01:45;32.30;;;18.10;;
77854;SDS011;67046;50.088;14.336;2023-03-03T02:02:18;33.70;;;17.50;;
77854;SDS011;67046;50.088;14.336;2023-03-03T02:02:51;33.80;;;17.60;;
77854;SDS011;67046;50.088;14.336;2023-03-03T02:03:24;31.90;;;17.90;;
77854;SDS011;67046;50.088;14.336;2023-03-03T02:03:56;34.40;;;18.20;;
77854;SDS011;67046;50.088;14.336;2023-03-03T02:04:28;32.80;;;17.30;;
77854;SDS011;67046;50.088;14.336;2023-03-03T02:05:00;31.50;;;17.00;;
77854;SDS011;67046;50.088;14.336;2023-03-03T02:05:32;30.60;;;17.50;;
77854;SDS011;67046;50.088;14.336;2023-03-03T02:06:07;32.30;;;17.90;;
77854;SDS011;67046;50.088;14.336;2023-03-03T02:06:43;33.10;;;18.00;;
77854;SDS011;67046;50.088;14.336;2023-03-03T02:07:21;29.50;;;16.80;;
77854;SDS011;67046;50.088;14.336;2023-03-03T02:07:56;31.60;;;17.80;;
77854;SDS011;67046;50.088;14.336;2023-03-03T02:09:11;35.10;;;18.20;;
77854;SDS011;67046;50.088;14.336;2023-03-03T02:10:35;32.90;;;16.20;;
77854;SDS011;67046;50.088;14.336;2023-03-03T02:11:07;29.20;;;16.50;;
77854;SDS011;67046;50.088;14.336;2023-03-03T02:11:41;31.70;;;17.00;;
77854;SDS011;67046;50.088;14.336;2023-03-03T02:12:16;28.40;;;16.00;;
77854;SDS011;67046;50.088;14.336;2023-03-03T02:12:52;32.80;;;17.80;;
77854;SDS011;67046;50.088;14.336;2023-03-03T02:13:27;29.50;;;16.80;;
77854;SDS011;67046;50.088;14.336;2023-03-03T02:13:59;31.50;;;17.30;;
77854;SDS011;67046;50.088;14.336;2023-03-03T02:14:31;33.50;;;18.80;;
77854;SDS011;67046;50.088;14.336;2023-03-03T02:15:17;30.40;;;17.10;;
77854;SDS011;67046;50.088;14.336;2023-03-03T02:16:02;29.20;;;16.50;;
77854;SDS011;67046;50.088;14.336;2023-03-03T02:17:07;30.00;;;16.30;;
77854;SDS011;67046;50.088;14.336;2023-03-03T02:17:39;29.80;;;16.20;;
77854;SDS011;67046;50.088;14.336;2023-03-03T02:18:14;30.20;;;16.90;;
77854;SDS011;67046;50.088;14.336;2023-03-03T02:18:49;28.80;;;16.50;;
77854;SDS011;67046;50.088;14.336;2023-03-03T02:21:23;27.30;;;15.40;;
77854;SDS011;67046;50.088;14.336;2023-03-03T02:21:59;30.80;;;17.50;;
77854;SDS011;67046;50.088;14.336;2023-03-03T02:23:16;29.50;;;15.50;;
77854;SDS011;67046;50.088;14.336;2023-03-03T02:24:29;28.50;;;15.10;;
77854;SDS011;67046;50.088;14.336;2023-03-03T02:25:10;31.40;;;16.40;;
77854;SDS011;67046;50.088;14.336;2023-03-03T02:26:29;30.70;;;15.30;;
77854;SDS011;67046;50.088;14.336;2023-03-03T02:27:03;33.60;;;17.10;;
77854;SDS011;67046;50.088;14.336;2023-03-03T02:27:35;29.20;;;16.30;;
77854;SDS011;67046;50.088;14.336;2023-03-03T02:28:07;31.10;;;15.90;;
77854;SDS011;67046;50.088;14.336;2023-03-03T02:28:40;28.50;;;16.80;;
77854;SDS011;67046;50.088;14.336;2023-03-03T02:29:12;30.70;;;16.80;;
77854;SDS011;67046;50.088;14.336;2023-03-03T02:29:44;29.00;;;16.30;;
77854;SDS011;67046;50.088;14.336;2023-03-03T02:30:17;32.00;;;17.00;;
77854;SDS011;67046;50.088;14.336;2023-03-03T02:30:53;30.60;;;15.70;;
77854;SDS011;67046;50.088;14.336;2023-03-03T02:31:29;31.10;;;16.90;;
77854;SDS011;67046;50.088;14.336;2023-03-03T02:32:02;26.70;;;15.80;;
77854;SDS011;67046;50.088;14.336;2023-03-03T02:32:34;28.80;;;16.80;;
77854;SDS011;67046;50.088;14.336;2023-03-03T02:33:06;29.00;;;16.30;;
77854;SDS011;67046;50.088;14.336;2023-03-03T02:33:39;27.70;;;16.30;;
77854;SDS011;67046;50.088;14.336;2023-03-03T02:34:15;33.40;;;17.10;;
77854;SDS011;67046;50.088;14.336;2023-03-03T02:35:35;29.90;;;15.50;;
77854;SDS011;67046;50.088;14.336;2023-03-03T02:36:12;31.10;;;15.50;;
77854;SDS011;67046;50.088;14.336;2023-03-03T02:36:46;30.00;;;16.40;;
77854;SDS011;67046;50.088;14.336;2023-03-03T02:37:19;29.00;;;17.00;;
77854;SDS011;67046;50.088;14.336;2023-03-03T02:37:51;27.10;;;15.80;;
77854;SDS011;67046;50.088;14.336;2023-03-03T02:38:27;26.50;;;15.60;;
77854;SDS011;67046;50.088;14.336;2023-03-03T02:39:23;31.80;;;16.10;;
77854;SDS011;67046;50.088;14.336;2023-03-03T02:39:57;32.70;;;16.50;;
77854;SDS011;67046;50.088;14.336;2023-03-03T02:40:30;29.10;;;15.70;;
77854;SDS011;67046;50.088;14.336;2023-03-03T02:42:41;30.60;;;16.40;;
77854;SDS011;67046;50.088;14.336;2023-03-03T02:42:57;30.80;;;15.20;;
77854;SDS011;67046;50.088;14.336;2023-03-03T02:43:37;31.40;;;16.10;;
77854;SDS011;67046;50.088;14.336;2023-03-03T02:44:16;27.10;;;15.70;;
77854;SDS011;67046;50.088;14.336;2023-03-03T02:44:51;35.60;;;15.80;;
77854;SDS011;67046;50.088;14.336;2023-03-03T02:45:23;28.90;;;16.50;;
77854;SDS011;67046;50.088;14.336;2023-03-03T02:45:55;31.40;;;16.40;;
77854;SDS011;67046;50.088;14.336;2023-03-03T02:46:27;31.60;;;16.50;;
77854;SDS011;67046;50.088;14.336;2023-03-03T02:47:03;29.00;;;15.90;;
77854;SDS011;67046;50.088;14.336;2023-03-03T02:47:35;29.90;;;15.90;;
77854;SDS011;67046;50.088;14.336;2023-03-03T02:48:07;29.00;;;16.40;;
77854;SDS011;67046;50.088;14.336;2023-03-03T02:48:39;28.60;;;17.00;;
77854;SDS011;67046;50.088;14.336;2023-03-03T02:49:12;31.10;;;16.80;;
77854;SDS011;67046;50.088;14.336;2023-03-03T02:49:46;30.20;;;16.70;;
77854;SDS011;67046;50.088;14.336;2023-03-03T02:50:18;30.70;;;17.10;;
77854;SDS011;67046;50.088;14.336;2023-03-03T02:50:50;32.70;;;17.50;;
77854;SDS011;67046;50.088;14.336;2023-03-03T02:51:22;31.30;;;17.10;;
77854;SDS011;67046;50.088;14.336;2023-03-03T02:51:54;29.40;;;16.50;;
77854;SDS011;67046;50.088;14.336;2023-03-03T02:52:26;32.00;;;16.30;;
77854;SDS011;67046;50.088;14.336;2023-03-03T02:52:58;28.80;;;16.20;;
77854;SDS011;67046;50.088;14.336;2023-03-03T02:53:30;31.60;;;16.70;;
77854;SDS011;67046;50.088;14.336;2023-03-03T02:54:02;29.30;;;17.20;;
77854;SDS011;67046;50.088;14.336;2023-03-03T02:54:35;31.00;;;16.90;;
77854;SDS011;67046;50.088;14.336;2023-03-03T02:55:08;31.20;;;16.60;;
77854;SDS011;67046;50.088;14.336;2023-03-03T02:55:40;27.80;;;16.10;;
77854;SDS011;67046;50.088;14.336;2023-03-03T02:56:12;27.90;;;16.80;;
77854;SDS011;67046;50.088;14.336;2023-03-03T02:56:44;30.60;;;15.90;;
77854;SDS011;67046;50.088;14.336;2023-03-03T02:57:49;30.10;;;16.00;;
77854;SDS011;67046;50.088;14.336;2023-03-03T02:58:20;30.50;;;15.60;;
77854;SDS011;67046;50.088;14.336;2023-03-03T02:58:52;27.30;;;15.70;;
77854;SDS011;67046;50.088;14.336;2023-03-03T02:59:24;28.00;;;15.40;;
77854;SDS011;67046;50.088;14.336;2023-03-03T02:59:56;31.50;;;15.90;;
77854;SDS011;67046;50.088;14.336;2023-03-03T03:00:28;28.70;;;16.50;;
77854;SDS011;67046;50.088;14.336;2023-03-03T03:01:01;29.40;;;16.80;;
77854;SDS011;67046;50.088;14.336;2023-03-03T03:02:07;29.80;;;15.30;;
77854;SDS011;67046;50.088;14.336;2023-03-03T03:02:39;31.00;;;15.90;;
77854;SDS011;67046;50.088;14.336;2023-03-03T03:03:11;26.60;;;15.50;;
77854;SDS011;67046;50.088;14.336;2023-03-03T03:03:43;30.50;;;15.50;;
77854;SDS011;67046;50.088;14.336;2023-03-03T03:04:17;29.30;;;15.70;;
77854;SDS011;67046;50.088;14.336;2023-03-03T03:04:51;29.40;;;16.20;;
77854;SDS011;67046;50.088;14.336;2023-03-03T03:05:23;28.50;;;15.10;;
77854;SDS011;67046;50.088;14.336;2023-03-03T03:05:55;32.20;;;15.60;;
77854;SDS011;67046;50.088;14.336;2023-03-03T03:06:27;29.50;;;16.40;;
77854;SDS011;67046;50.088;14.336;2023-03-03T03:06:59;30.00;;;15.50;;
77854;SDS011;67046;50.088;14.336;2023-03-03T03:07:31;28.10;;;15.80;;
77854;SDS011;67046;50.088;14.336;2023-03-03T03:08:03;25.40;;;15.30;;
77854;SDS011;67046;50.088;14.336;2023-03-03T03:08:35;29.20;;;16.20;;
77854;SDS011;67046;50.088;14.336;2023-03-03T03:09:07;35.00;;;16.50;;
77854;SDS011;67046;50.088;14.336;2023-03-03T03:09:40;32.40;;;16.40;;
77854;SDS011;67046;50.088;14.336;2023-03-03T03:10:12;30.20;;;16.90;;
77854;SDS011;67046;50.088;14.336;2023-03-03T03:10:45;31.70;;;16.10;;
77854;SDS011;67046;50.088;14.336;2023-03-03T03:11:17;29.90;;;16.00;;
77854;SDS011;67046;50.088;14.336;2023-03-03T03:11:49;27.00;;;15.80;;
77854;SDS011;67046;50.088;14.336;2023-03-03T03:12:21;29.70;;;15.90;;
77854;SDS011;67046;50.088;14.336;2023-03-03T03:12:52;34.90;;;16.80;;
77854;SDS011;67046;50.088;14.336;2023-03-03T03:13:24;27.50;;;15.90;;
77854;SDS011;67046;50.088;14.336;2023-03-03T03:14:29;29.90;;;15.40;;
77854;SDS011;67046;50.088;14.336;2023-03-03T03:15:01;29.40;;;14.90;;
77854;SDS011;67046;50.088;14.336;2023-03-03T03:15:34;28.50;;;15.70;;
77854;SDS011;67046;50.088;14.336;2023-03-03T03:16:06;31.90;;;15.30;;
77854;SDS011;67046;50.088;14.336;2023-03-03T03:16:38;27.80;;;15.30;;
77854;SDS011;67046;50.088;14.336;2023-03-03T03:17:10;32.30;;;16.50;;
77854;SDS011;67046;50.088;14.336;2023-03-03T03:18:15;28.50;;;13.40;;
77854;SDS011;67046;50.088;14.336;2023-03-03T03:18:47;30.80;;;16.00;;
77854;SDS011;67046;50.088;14.336;2023-03-03T03:19:20;27.90;;;15.60;;
77854;SDS011;67046;50.088;14.336;2023-03-03T03:19:52;29.30;;;16.10;;
77854;SDS011;67046;50.088;14.336;2023-03-03T03:20:24;29.30;;;15.60;;
77854;SDS011;67046;50.088;14.336;2023-03-03T03:20:57;28.20;;;15.70;;
77854;SDS011;67046;50.088;14.336;2023-03-03T03:21:37;30.40;;;15.80;;
77854;SDS011;67046;50.088;14.336;2023-03-03T03:22:09;27.70;;;14.70;;
77854;SDS011;67046;50.088;14.336;2023-03-03T03:22:41;30.90;;;16.00;;
77854;SDS011;67046;50.088;14.336;2023-03-03T03:23:13;30.10;;;16.40;;
77854;SDS011;67046;50.088;14.336;2023-03-03T03:23:46;31.70;;;16.30;;
77854;SDS011;67046;50.088;14.336;2023-03-03T03:24:18;28.10;;;15.10;;
77854;SDS011;67046;50.088;14.336;2023-03-03T03:25:22;29.80;;;15.20;;
77854;SDS011;67046;50.088;14.336;2023-03-03T03:25:54;27.60;;;15.00;;
77854;SDS011;67046;50.088;14.336;2023-03-03T03:26:26;27.70;;;14.70;;
77854;SDS011;67046;50.088;14.336;2023-03-03T03:26:58;27.50;;;15.10;;
77854;SDS011;67046;50.088;14.336;2023-03-03T03:27:30;25.20;;;14.70;;
77854;SDS011;67046;50.088;14.336;2023-03-03T03:28:02;31.40;;;16.30;;
77854;SDS011;67046;50.088;14.336;2023-03-03T03:28:34;29.10;;;15.40;;
77854;SDS011;67046;50.088;14.336;2023-03-03T03:29:06;28.10;;;15.60;;
77854;SDS011;67046;50.088;14.336;2023-03-03T03:29:38;28.90;;;16.60;;
77854;SDS011;67046;50.088;14.336;2023-03-03T03:30:10;26.20;;;15.60;;
77854;SDS011;67046;50.088;14.336;2023-03-03T03:30:42;28.50;;;16.10;;
77854;SDS011;67046;50.088;14.336;2023-03-03T03:31:16;28.40;;;15.90;;
77854;SDS011;67046;50.088;14.336;2023-03-03T03:31:50;27.20;;;16.40;;
77854;SDS011;67046;50.088;14.336;2023-03-03T03:32:22;28.50;;;16.10;;
77854;SDS011;67046;50.088;14.336;2023-03-03T03:32:54;28.70;;;15.90;;
77854;SDS011;67046;50.088;14.336;2023-03-03T03:33:26;28.70;;;16.50;;
77854;SDS011;67046;50.088;14.336;2023-03-03T03:34:31;29.20;;;15.60;;
77854;SDS011;67046;50.088;14.336;2023-03-03T03:35:03;30.80;;;15.40;;
77854;SDS011;67046;50.088;14.336;2023-03-03T03:36:07;28.30;;;14.80;;
77854;SDS011;67046;50.088;14.336;2023-03-03T03:36:39;28.70;;;15.60;;
77854;SDS011;67046;50.088;14.336;2023-03-03T03:37:12;27.80;;;16.10;;
77854;SDS011;67046;50.088;14.336;2023-03-03T03:37:44;31.90;;;16.30;;
77854;SDS011;67046;50.088;14.336;2023-03-03T03:38:15;25.90;;;15.90;;
77854;SDS011;67046;50.088;14.336;2023-03-03T03:38:47;28.90;;;16.00;;
77854;SDS011;67046;50.088;14.336;2023-03-03T03:39:19;30.50;;;15.20;;
77854;SDS011;67046;50.088;14.336;2023-03-03T03:39:51;29.30;;;15.80;;
77854;SDS011;67046;50.088;14.336;2023-03-03T03:40:24;27.40;;;15.10;;
77854;SDS011;67046;50.088;14.336;2023-03-03T03:40:57;25.80;;;15.60;;
77854;SDS011;67046;50.088;14.336;2023-03-03T03:41:30;28.30;;;15.10;;
77854;SDS011;67046;50.088;14.336;2023-03-03T03:42:02;29.30;;;15.90;;
77854;SDS011;67046;50.088;14.336;2023-03-03T03:42:34;29.90;;;16.80;;
77854;SDS011;67046;50.088;14.336;2023-03-03T03:43:06;29.40;;;16.40;;
77854;SDS011;67046;50.088;14.336;2023-03-03T03:43:38;27.40;;;15.90;;
77854;SDS011;67046;50.088;14.336;2023-03-03T03:44:10;28.10;;;15.60;;
77854;SDS011;67046;50.088;14.336;2023-03-03T03:44:42;30.00;;;16.90;;
77854;SDS011;67046;50.088;14.336;2023-03-03T03:45:14;29.90;;;16.90;;
77854;SDS011;67046;50.088;14.336;2023-03-03T03:45:46;30.10;;;17.00;;